Overview Statistics Trail Chart Weather Telemetry Raw packets
 

This is the latest recevied weather packets stored in our database for station/object G0TQM-11. If no packets are shown the sender has not sent any weather packets the latest 10 day(s).

<< 13 14 15 16 17 18 19 >>
Time Temp. Humidity Pressure Rain* Wind** Luminosity Snow
1788261709 25° C 39% 1014.7 hPa - - - -
1788260509 26.11° C 36% 1014.8 hPa - - - -
1788259309 25° C 38% 1014.9 hPa - - - -
1788258109 24.44° C 40% 1014.8 hPa - - - -
1788256928 25° C 39% 1014.9 hPa - - - -
1788255708 25° C 39% 1015.1 hPa - - - -
1788254508 23.33° C 42% 1015.3 hPa - - - -
1788253308 22.78° C 43% 1015.3 hPa - - - -
1788252108 22.78° C 43% 1015.3 hPa - - - -
1788250908 21.67° C 45% 1015.4 hPa - - - -
1788249708 21.67° C 45% 1015.3 hPa - - - -
1788248507 20.56° C 46% 1015.2 hPa - - - -
1788247312 21.11° C 45% 1015.3 hPa - - - -
1788246112 21.67° C 44% 1015.3 hPa - - - -
1788244912 20° C 47% 1015.2 hPa - - - -
1788243711 20° C 48% 1015 hPa - - - -
1788242511 17.78° C 54% 1015 hPa - - - -
1788241311 16.67° C 56% 1015 hPa - - - -
1788240111 16.67° C 56% 1014.9 hPa - - - -
1788238911 16.67° C 55% 1015 hPa - - - -
1788237711 16.67° C 56% 1014.9 hPa - - - -
1788236511 16.67° C 55% 1014.7 hPa - - - -
1788235310 16.67° C 55% 1014.7 hPa - - - -
1788234110 17.22° C 54% 1014.8 hPa - - - -
1788232910 17.22° C 54% 1014.9 hPa - - - -

* Rain since midnight (hover to see other rain measurements)
** Current wind speed in m/s (hover to see current wind gust speed)